createdAt,value
2019-01-05T00:01:05.096Z,65.30
2019-01-05T00:03:35.143Z,64.90
2019-01-05T00:06:07.664Z,61.73
2019-01-05T00:08:43.547Z,62.10
2019-01-05T00:11:16.187Z,59.87
2019-01-05T00:13:46.237Z,62.77
2019-01-05T00:16:32.920Z,62.40
2019-01-05T00:19:19.775Z,56.87
2019-01-05T00:21:50.181Z,59.10
2019-01-05T00:24:29.535Z,58.93
2019-01-05T00:27:00.640Z,53.33
2019-01-05T00:29:31.236Z,56.83
2019-01-05T00:32:15.766Z,53.03
2019-01-05T00:34:46.572Z,52.13
2019-01-05T00:37:19.126Z,51.73
2019-01-05T00:39:52.347Z,52.17
2019-01-05T00:42:25.695Z,52.70
2019-01-05T00:44:59.024Z,47.50
2019-01-05T00:47:48.802Z,48.83
2019-01-05T00:50:27.215Z,47.57
2019-01-05T00:53:00.439Z,48.97
2019-01-05T00:55:45.754Z,49.20
2019-01-05T00:58:25.422Z,46.10
2019-01-05T01:00:58.034Z,43.43
2019-01-05T01:03:44.376Z,45.63
2019-01-05T01:06:29.504Z,43.83
2019-01-05T01:08:59.613Z,43.87
2019-01-05T01:11:35.444Z,38.20
2019-01-05T01:14:11.582Z,40.20
2019-01-05T01:16:47.972Z,38.87
2019-01-05T01:19:34.359Z,38.40
2019-01-05T01:22:10.628Z,36.40
2019-01-05T01:24:46.620Z,38.57
2019-01-05T01:27:33.273Z,36.97
2019-01-05T01:30:09.164Z,31.27
2019-01-05T01:32:48.178Z,34.60
2019-01-05T01:35:30.132Z,37.93
2019-01-05T01:38:29.823Z,32.63
2019-01-05T01:41:17.680Z,30.87
2019-01-05T01:44:03.416Z,32.10
2019-01-05T01:46:39.090Z,31.00
2019-01-05T01:49:24.335Z,33.43
2019-01-05T01:52:01.540Z,32.13
2019-01-05T01:54:44.149Z,29.77
2019-01-05T01:57:31.868Z,26.83
2019-01-05T02:00:04.608Z,26.30
2019-01-05T02:02:34.733Z,29.33
2019-01-05T02:05:05.048Z,26.47
2019-01-05T02:07:40.007Z,26.23
2019-01-05T02:10:26.844Z,26.50
2019-01-05T02:13:16.418Z,26.20
2019-01-05T02:16:03.883Z,28.37
2019-01-05T02:18:53.340Z,23.17
2019-01-05T02:22:05.630Z,24.00
2019-01-05T02:24:50.476Z,22.00
2019-01-05T02:27:35.277Z,23.47
2019-01-05T02:30:53.420Z,22.73
2019-01-05T02:33:41.573Z,24.57
2019-01-05T02:36:40.283Z,24.67
2019-01-05T02:39:37.449Z,23.10
2019-01-05T02:42:31.065Z,23.10
2019-01-05T02:45:34.457Z,22.37
2019-01-05T02:48:28.695Z,22.50
2019-01-05T02:51:21.461Z,22.73
2019-01-05T02:54:15.824Z,21.97
2019-01-05T02:57:19.457Z,22.07
2019-01-05T03:00:18.044Z,22.17
2019-01-05T03:06:45.511Z,21.07
2019-01-05T03:09:34.956Z,20.23
2019-01-05T03:12:16.943Z,22.03
2019-01-05T03:14:55.580Z,21.00
2019-01-05T03:18:04.399Z,20.50
2019-01-05T03:21:01.582Z,19.90
2019-01-05T03:23:56.845Z,20.57
2019-01-05T03:26:52.081Z,19.17
2019-01-05T03:29:43.298Z,18.63
2019-01-05T03:32:27.898Z,18.63
2019-01-05T03:35:03.610Z,18.70
2019-01-05T03:38:09.807Z,19.43
2019-01-05T03:41:00.835Z,18.97
2019-01-05T03:44:11.912Z,17.70
2019-01-05T03:47:15.225Z,15.73
2019-01-05T03:49:56.715Z,16.50
2019-01-05T03:52:38.519Z,18.87
2019-01-05T03:55:35.973Z,18.97
2019-01-05T03:58:46.692Z,16.50
2019-01-05T04:01:19.810Z,15.30
2019-01-05T04:04:12.367Z,17.97
2019-01-05T04:07:15.246Z,17.07
2019-01-05T04:10:10.906Z,14.90
2019-01-05T04:12:58.718Z,15.60
2019-01-05T04:15:56.551Z,15.67
2019-01-05T04:18:38.988Z,16.10
2019-01-05T04:21:37.591Z,15.47
2019-01-05T04:24:27.266Z,15.57
2019-01-05T04:27:42.717Z,16.90
2019-01-05T04:30:38.474Z,15.97
2019-01-05T04:33:26.590Z,17.23
2019-01-05T04:36:05.130Z,16.13
2019-01-05T04:39:04.040Z,15.17
2019-01-05T04:42:02.068Z,14.53
2019-01-05T04:45:09.970Z,14.40
2019-01-05T04:48:21.060Z,14.30
2019-01-05T04:51:27.529Z,13.27
2019-01-05T04:54:33.890Z,13.07
2019-01-05T04:57:24.734Z,14.50
2019-01-05T05:00:20.223Z,16.77
2019-01-05T05:02:59.222Z,15.67
2019-01-05T05:05:59.364Z,14.60
2019-01-05T05:08:38.163Z,14.73
2019-01-05T05:11:34.867Z,15.17
2019-01-05T05:14:41.060Z,16.13
2019-01-05T05:17:51.442Z,15.87
2019-01-05T05:20:57.873Z,15.27
2019-01-05T05:24:05.845Z,15.03
2019-01-05T05:26:55.497Z,14.53
2019-01-05T05:29:45.020Z,15.67
2019-01-05T05:32:49.812Z,13.03
2019-01-05T05:35:54.480Z,14.77
2019-01-05T05:39:05.559Z,12.57
2019-01-05T05:42:04.455Z,15.67
2019-01-05T05:45:12.313Z,11.67
2019-01-05T05:47:48.016Z,11.07
2019-01-05T05:50:40.470Z,12.50
2019-01-05T05:53:55.780Z,12.73
2019-01-05T05:57:11.011Z,10.83
2019-01-05T06:00:10.217Z,11.83
2019-01-05T06:03:16.329Z,9.93
2019-01-05T06:06:04.319Z,11.37
2019-01-05T06:08:40.167Z,10.23
2019-01-05T06:11:52.323Z,10.23
2019-01-05T06:14:57.380Z,11.80
2019-01-05T06:17:54.136Z,10.40
2019-01-05T06:21:04.867Z,9.67
2019-01-05T06:24:11.061Z,9.00
2019-01-05T06:27:02.332Z,6.77
2019-01-05T06:29:50.566Z,6.83
2019-01-05T06:32:58.511Z,7.37
2019-01-05T06:36:10.901Z,7.70
2019-01-05T06:39:09.140Z,8.73
2019-01-05T06:42:16.803Z,9.87
2019-01-05T06:45:22.994Z,10.13
2019-01-05T06:48:32.345Z,10.37
2019-01-05T06:51:55.448Z,14.97
2019-01-05T06:55:04.126Z,24.07
2019-01-05T06:58:26.851Z,20.67
2019-01-05T07:01:22.902Z,19.67
2019-01-05T07:04:15.321Z,20.97
2019-01-05T07:07:30.297Z,20.10
2019-01-05T07:10:28.605Z,20.67
2019-01-05T07:13:33.661Z,17.10
2019-01-05T07:16:38.692Z,16.20
2019-01-05T07:19:31.904Z,18.93
2019-01-05T07:22:32.399Z,16.67
2019-01-05T07:25:25.032Z,15.43
2019-01-05T07:28:20.771Z,21.40
2019-01-05T07:31:05.335Z,14.83
2019-01-05T07:34:22.501Z,16.33
2019-01-05T07:37:14.676Z,19.63
2019-01-05T07:40:33.426Z,19.77
2019-01-05T07:43:30.512Z,19.83
2019-01-05T07:46:20.303Z,14.87
2019-01-05T07:49:28.354Z,17.17
2019-01-05T07:52:35.113Z,14.37
2019-01-05T07:55:29.136Z,14.97
2019-01-05T07:58:27.836Z,16.23
2019-01-05T08:01:41.593Z,17.33
2019-01-05T08:04:39.901Z,17.73
2019-01-05T08:07:44.792Z,19.00
2019-01-05T08:11:00.574Z,15.20
2019-01-05T08:14:16.224Z,16.93
2019-01-05T08:17:28.760Z,20.03
2019-01-05T08:20:44.296Z,14.83
2019-01-05T08:23:29.587Z,15.03
2019-01-05T08:26:08.267Z,13.23
2019-01-05T08:29:17.568Z,13.00
2019-01-05T08:32:24.611Z,10.53
2019-01-05T08:35:16.774Z,7.73
2019-01-05T08:38:22.551Z,9.80
2019-01-05T08:41:29.017Z,7.53
2019-01-05T08:44:30.321Z,9.67
2019-01-05T08:47:24.635Z,6.47
2019-01-05T08:50:29.201Z,5.30
2019-01-05T08:53:53.676Z,7.50
2019-01-05T08:56:46.789Z,7.27
2019-01-05T08:59:19.890Z,13.27
2019-01-05T09:02:20.248Z,8.53
2019-01-05T09:05:17.545Z,9.57
2019-01-05T09:08:10.064Z,8.50
2019-01-05T09:11:21.040Z,11.67
2019-01-05T09:14:26.856Z,12.13
2019-01-05T09:17:32.597Z,11.30
2019-01-05T09:20:48.076Z,13.30
2019-01-05T09:23:56.129Z,13.53
2019-01-05T09:27:02.742Z,13.90
2019-01-05T09:30:04.432Z,15.33
2019-01-05T09:33:06.224Z,18.47
2019-01-05T09:36:01.773Z,15.67
2019-01-05T09:39:08.039Z,17.07
2019-01-05T09:42:13.936Z,15.00
2019-01-05T09:45:05.290Z,18.13
2019-01-05T09:47:44.567Z,16.97
2019-01-05T09:50:49.626Z,19.43
2019-01-05T09:53:28.828Z,15.40
2019-01-05T09:56:01.973Z,11.13
2019-01-05T09:59:03.688Z,14.67
2019-01-05T10:02:28.591Z,9.93
2019-01-05T10:05:30.223Z,12.47
2019-01-05T10:08:43.910Z,10.43
2019-01-05T10:11:22.676Z,10.27
2019-01-05T10:14:01.499Z,10.00
2019-01-05T10:16:49.972Z,15.43
2019-01-05T10:19:32.228Z,11.70
2019-01-05T10:22:24.916Z,12.03
2019-01-05T10:25:21.888Z,10.90
2019-01-05T10:28:26.282Z,8.73
2019-01-05T10:31:35.635Z,9.27
2019-01-05T10:34:26.518Z,7.07
2019-01-05T10:37:20.350Z,6.33
2019-01-05T10:40:04.716Z,10.60
2019-01-05T10:42:56.957Z,6.30
2019-01-05T10:45:42.222Z,6.87
2019-01-05T10:48:30.232Z,7.13
2019-01-05T10:51:27.577Z,4.80
2019-01-05T10:54:09.618Z,3.73
2019-01-05T10:57:03.545Z,8.60
2019-01-05T11:00:11.584Z,9.37
2019-01-05T11:03:05.410Z,9.63
2019-01-05T11:06:14.877Z,13.13
2019-01-05T11:09:16.383Z,15.33
2019-01-05T11:12:07.464Z,22.10
2019-01-05T11:15:06.069Z,24.43
2019-01-05T11:18:27.091Z,26.47
2019-01-05T11:21:27.408Z,27.97
2019-01-05T11:24:22.972Z,27.80
2019-01-05T11:27:08.012Z,29.67
2019-01-05T11:30:09.722Z,22.97
2019-01-05T11:33:19.121Z,21.40
2019-01-05T11:36:36.085Z,20.10
2019-01-05T11:39:31.416Z,16.43
2019-01-05T11:42:21.058Z,15.10
2019-01-05T11:45:29.064Z,15.43
2019-01-05T11:48:33.664Z,16.27
2019-01-05T11:51:30.863Z,18.80
2019-01-05T11:54:23.111Z,20.30
2019-01-05T11:57:08.910Z,26.63
2019-01-05T12:00:10.733Z,20.30
2019-01-05T12:03:01.635Z,18.50
2019-01-05T12:06:04.773Z,17.30
2019-01-05T12:09:07.959Z,16.00
2019-01-05T12:12:17.680Z,19.50
2019-01-05T12:15:22.121Z,19.73
2019-01-05T12:18:27.149Z,18.17
2019-01-05T12:21:35.189Z,16.83
2019-01-05T12:24:27.816Z,13.40
2019-01-05T12:27:39.799Z,13.43
2019-01-05T12:30:41.428Z,12.33
2019-01-05T12:33:40.155Z,8.63
2019-01-05T12:36:35.361Z,8.77
2019-01-05T12:39:40.330Z,7.77
2019-01-05T12:42:54.337Z,6.90
2019-01-05T12:46:00.748Z,12.53
2019-01-05T12:49:14.717Z,10.07
2019-01-05T12:52:21.067Z,9.83
2019-01-05T12:55:29.028Z,10.53
2019-01-05T12:58:37.583Z,13.47
2019-01-05T13:01:25.660Z,8.50
2019-01-05T13:04:16.509Z,9.67
2019-01-05T13:07:22.409Z,9.37
2019-01-05T13:10:20.310Z,14.20
2019-01-05T13:13:33.021Z,13.80
2019-01-05T13:16:54.305Z,13.63
2019-01-05T13:19:36.969Z,14.10
2019-01-05T13:22:18.877Z,14.97
2019-01-05T13:25:29.816Z,9.17
2019-01-05T13:28:21.176Z,9.93
2019-01-05T13:30:59.933Z,11.67
2019-01-05T13:34:01.216Z,11.63
2019-01-05T13:36:39.991Z,15.17
2019-01-05T13:39:30.347Z,23.20
2019-01-05T13:42:31.041Z,20.13
2019-01-05T13:45:34.099Z,22.17
2019-01-05T13:48:37.206Z,21.00
2019-01-05T13:51:28.507Z,22.73
2019-01-05T13:54:07.267Z,26.83
2019-01-05T13:56:53.668Z,27.80
2019-01-05T13:59:23.710Z,26.20
2019-01-05T14:02:09.028Z,22.97
2019-01-05T14:04:48.021Z,23.97
2019-01-05T14:07:33.997Z,25.17
2019-01-05T14:10:07.040Z,26.80
2019-01-05T14:12:51.906Z,38.07
2019-01-05T14:15:22.217Z,27.43
2019-01-05T14:18:08.775Z,30.30
2019-01-05T14:20:51.139Z,28.83
2019-01-05T14:23:37.691Z,26.57
2019-01-05T14:26:10.313Z,27.20
2019-01-05T14:28:43.155Z,23.37
2019-01-05T14:31:25.066Z,22.73
2019-01-05T14:34:13.152Z,30.70
2019-01-05T14:36:54.278Z,32.37
2019-01-05T14:39:27.017Z,36.87
2019-01-05T14:42:13.132Z,39.43
2019-01-05T14:44:43.203Z,37.40
2019-01-05T14:47:16.214Z,31.60
2019-01-05T14:49:46.413Z,22.27
2019-01-05T14:52:22.470Z,20.47
2019-01-05T14:54:55.439Z,16.77
2019-01-05T14:57:34.543Z,11.13
2019-01-05T15:00:04.744Z,11.90
2019-01-05T15:02:40.614Z,10.60
2019-01-05T15:05:26.883Z,10.23
2019-01-05T15:07:56.957Z,7.67
2019-01-05T15:10:42.892Z,14.33
2019-01-05T15:13:25.168Z,10.93
2019-01-05T15:15:55.212Z,13.10
2019-01-05T15:18:27.861Z,13.20
2019-01-05T15:21:00.555Z,9.27
2019-01-05T15:23:39.835Z,8.13
2019-01-05T15:26:24.918Z,9.17
2019-01-05T15:28:54.961Z,10.40
2019-01-05T15:31:41.143Z,9.77
2019-01-05T15:34:17.223Z,8.97
2019-01-05T15:37:05.535Z,10.50
2019-01-05T15:39:50.754Z,9.00
2019-01-05T15:42:32.447Z,9.10
2019-01-05T15:45:18.635Z,9.03
2019-01-05T15:47:51.615Z,9.23
2019-01-05T15:50:38.034Z,9.47
2019-01-05T15:53:10.984Z,14.63
2019-01-05T15:55:57.438Z,16.07
2019-01-05T15:58:33.048Z,17.33
2019-01-05T16:01:07.071Z,22.43
2019-01-05T16:03:39.946Z,18.50
2019-01-05T16:06:10.013Z,19.40
2019-01-05T16:08:55.328Z,19.33
2019-01-05T16:11:38.222Z,22.00
2019-01-05T16:14:26.663Z,24.97
2019-01-05T16:17:12.070Z,21.73
2019-01-05T16:19:57.083Z,17.97
2019-01-05T16:22:42.035Z,15.93
2019-01-05T16:25:12.088Z,18.50
2019-01-05T16:27:47.720Z,17.00
2019-01-05T16:30:18.104Z,18.50
2019-01-05T16:32:50.968Z,18.40
2019-01-05T16:35:30.009Z,19.57
2019-01-05T16:38:06.185Z,14.83
2019-01-05T16:40:45.455Z,12.03
2019-01-05T16:43:15.543Z,12.67
2019-01-05T16:45:57.449Z,15.93
2019-01-05T16:48:30.417Z,15.73
2019-01-05T16:51:09.647Z,14.53
2019-01-05T16:53:51.645Z,10.93
2019-01-05T16:56:33.860Z,11.07
2019-01-05T16:59:06.717Z,12.40
2019-01-05T17:01:42.808Z,10.90
2019-01-05T17:04:21.967Z,10.13
2019-01-05T17:06:54.975Z,9.33
2019-01-05T17:09:39.976Z,7.60
2019-01-05T17:12:18.995Z,11.67
2019-01-05T17:14:49.027Z,10.97
2019-01-05T17:17:35.574Z,11.83
2019-01-05T17:20:13.872Z,10.93
2019-01-05T17:22:49.827Z,14.37
2019-01-05T17:25:38.007Z,8.90
2019-01-05T17:28:10.880Z,9.07
2019-01-05T17:30:49.947Z,14.97
2019-01-05T17:33:19.991Z,8.10
2019-01-05T17:35:50.040Z,10.23
2019-01-05T17:38:31.734Z,12.13
2019-01-05T17:41:16.748Z,11.77
2019-01-05T17:43:49.380Z,10.87
2019-01-05T17:46:34.279Z,10.83
2019-01-05T17:49:07.191Z,12.03
2019-01-05T17:51:47.233Z,9.53
2019-01-05T17:54:23.766Z,11.80
2019-01-05T17:56:53.808Z,10.17
2019-01-05T17:59:29.517Z,9.03
2019-01-05T18:02:02.529Z,11.60
2019-01-05T18:04:35.331Z,10.03
2019-01-05T18:07:21.847Z,8.70
2019-01-05T18:10:01.103Z,10.00
2019-01-05T18:12:47.412Z,12.73
2019-01-05T18:15:17.427Z,8.97
2019-01-05T18:18:03.720Z,10.90
2019-01-05T18:20:34.207Z,11.67
2019-01-05T18:23:04.424Z,10.03
2019-01-05T18:25:50.889Z,8.33
2019-01-05T18:28:23.737Z,9.03
2019-01-05T18:31:05.771Z,8.33
2019-01-05T18:33:38.500Z,8.63
2019-01-05T18:36:23.915Z,10.30
2019-01-05T18:39:02.553Z,7.47
2019-01-05T18:41:32.656Z,7.93
2019-01-05T18:44:08.689Z,8.10
2019-01-05T18:46:59.684Z,7.90
2019-01-05T18:49:30.121Z,8.97
2019-01-05T18:52:16.656Z,8.40
2019-01-05T18:54:52.283Z,8.73
2019-01-05T18:57:31.379Z,9.40
2019-01-05T19:00:19.266Z,10.00
2019-01-05T19:03:05.587Z,11.50
2019-01-05T19:05:50.858Z,9.70
2019-01-05T19:08:29.706Z,13.33
2019-01-05T19:11:02.440Z,9.80
2019-01-05T19:13:41.345Z,11.33
2019-01-05T19:16:26.318Z,11.77
2019-01-05T19:19:12.806Z,9.70
2019-01-05T19:21:48.841Z,9.37
2019-01-05T19:24:35.270Z,10.03
2019-01-05T19:27:14.027Z,10.40
2019-01-05T19:29:53.035Z,10.20
2019-01-05T19:32:26.028Z,9.70
2019-01-05T19:35:09.052Z,8.73
2019-01-05T19:37:53.988Z,10.37
2019-01-05T19:40:40.589Z,11.23
2019-01-05T19:43:22.512Z,9.37
2019-01-05T19:46:08.897Z,9.47
2019-01-05T19:48:38.952Z,11.70
2019-01-05T19:51:11.970Z,9.20
2019-01-05T19:53:44.638Z,9.77
2019-01-05T19:56:17.707Z,8.87
2019-01-05T19:59:05.609Z,8.90
2019-01-05T20:01:53.844Z,8.87
2019-01-05T20:04:23.903Z,11.23
2019-01-05T20:06:57.757Z,10.23
2019-01-05T20:09:27.809Z,9.77
2019-01-05T20:11:57.856Z,9.73
2019-01-05T20:14:44.378Z,9.90
2019-01-05T20:17:14.406Z,12.33
2019-01-05T20:20:00.772Z,9.77
2019-01-05T20:22:45.859Z,12.77
2019-01-05T20:25:21.828Z,10.60
2019-01-05T20:27:51.904Z,9.50
2019-01-05T20:30:22.503Z,9.70
2019-01-05T20:33:10.500Z,9.53
2019-01-05T20:35:58.782Z,10.10
2019-01-05T20:38:28.853Z,10.47
2019-01-05T20:41:15.160Z,11.53
2019-01-05T20:43:51.331Z,11.23
2019-01-05T20:46:33.316Z,12.33
2019-01-05T20:49:03.364Z,10.03
2019-01-05T20:51:49.487Z,10.80
2019-01-05T20:54:19.602Z,8.50
2019-01-05T20:57:06.092Z,9.80
2019-01-05T20:59:45.315Z,9.37
2019-01-05T21:02:21.299Z,10.43
2019-01-05T21:05:03.656Z,11.13
2019-01-05T21:07:42.247Z,8.97
2019-01-05T21:10:28.615Z,8.17
2019-01-05T21:12:58.660Z,7.83
2019-01-05T21:15:31.527Z,9.87
2019-01-05T21:18:01.593Z,9.17
2019-01-05T21:20:35.867Z,9.00
2019-01-05T21:23:23.938Z,9.30
2019-01-05T21:25:53.963Z,7.60
2019-01-05T21:28:42.283Z,7.93
2019-01-05T21:31:21.608Z,7.47
2019-01-05T21:34:03.640Z,7.53
2019-01-05T21:36:33.694Z,8.87
2019-01-05T21:39:06.639Z,9.37
2019-01-05T21:41:42.600Z,8.13
2019-01-05T21:44:28.794Z,7.17
2019-01-05T21:46:58.887Z,8.27
2019-01-05T21:49:44.035Z,7.60
2019-01-05T21:52:16.919Z,6.90
2019-01-05T21:55:03.745Z,9.77
2019-01-05T21:57:50.159Z,8.50
2019-01-05T22:00:36.550Z,9.97
2019-01-05T22:03:06.600Z,14.13
2019-01-05T22:05:53.188Z,11.17
2019-01-05T22:08:26.195Z,11.13
2019-01-05T22:10:59.006Z,13.00
2019-01-05T22:13:34.767Z,11.80
2019-01-05T22:16:21.204Z,11.60
2019-01-05T22:18:51.264Z,13.13
2019-01-05T22:21:21.299Z,13.47
2019-01-05T22:24:07.878Z,14.50
2019-01-05T22:26:43.717Z,14.70
2019-01-05T22:29:13.765Z,17.30
2019-01-05T22:31:59.883Z,20.53
2019-01-05T22:34:30.567Z,16.20
2019-01-05T22:37:06.509Z,16.53
2019-01-05T22:39:52.798Z,15.47
2019-01-05T22:42:22.867Z,14.33
2019-01-05T22:45:05.311Z,18.97
2019-01-05T22:47:35.383Z,14.03
2019-01-05T22:50:06.964Z,16.00
2019-01-05T22:52:39.824Z,15.03
2019-01-05T22:55:25.153Z,14.77
2019-01-05T22:57:55.195Z,15.10
2019-01-05T23:00:31.440Z,18.33
2019-01-05T23:03:07.176Z,20.33
2019-01-05T23:05:43.044Z,24.53
2019-01-05T23:08:13.107Z,19.13
2019-01-05T23:10:52.215Z,24.03
2019-01-05T23:13:22.253Z,23.67
2019-01-05T23:15:52.320Z,21.70
2019-01-05T23:18:28.317Z,24.13
2019-01-05T23:20:58.388Z,22.83
2019-01-05T23:23:34.804Z,22.73
2019-01-05T23:26:21.297Z,17.80
2019-01-05T23:28:51.366Z,17.10
2019-01-05T23:31:21.411Z,17.30
2019-01-05T23:33:51.505Z,17.30
2019-01-05T23:36:24.293Z,14.93
2019-01-05T23:39:00.164Z,11.10
2019-01-05T23:41:36.216Z,8.47
2019-01-05T23:44:12.197Z,8.23
2019-01-05T23:46:58.517Z,7.80
2019-01-05T23:49:34.415Z,5.50
2019-01-05T23:52:10.475Z,5.10
2019-01-05T23:54:50.604Z,4.73
2019-01-05T23:57:36.935Z,5.73
